Aérodrome :
LOGIN :

S'inscrire | Disclaimer

   EN    FR    IT 

 










Légende :    VFR   VFR Marginal   IFR   IFR Intensif   IFR Très Intensif
Visi : 
Plafond : 
>= 8 km
>= 3000ft
5 à 8 km
1000 à 3000 ft
1500m à 5 km
500 à 1000 ft
800 à 1500m
200 à 500 ft
< 800m
< 200 ft
Symboles :   Orages  Brouillard  Fortes neiges  Fortes précipitations  Vent > 20 kt
SIGMETs :   Divers  Orages  Givrage  Turbulence  Onde Orograph.  Cendres Volcan.






- Altitude de l'aérodrome : 15 ft
- Code IATA : BHD


EGAC - George Best Belfast City

DERNIER METAR :
  • 171320Z AUTO 16015KT 9999 SCT027/// BKN033/// 14/08 Q0995

METARs EXPIRÉS :
  • 171250Z AUTO 16014KT 9999 FEW039/// 14/09 Q0995
  • 171220Z AUTO 17012KT 9999 FEW025/// SCT041/// 13/09 Q0996
  • 171150Z AUTO 16013KT 9999 SCT031/// SCT043/// 14/09 Q0996
  • 171120Z AUTO 16012KT 9999 NCD 13/09 Q0996
  • 171050Z AUTO 17011KT 9999 FEW024/// 13/09 Q0996

TAF TAF EGAC
Valide du 17 à 12h jusqu'au 17 à 21h UTC


171058Z 1712/1721 17012KT 9999 FEW020 SCT030
TEMPO 1713/1719 6000 SHRA
PROB30
TEMPO 1714/1718 15015G25KT 3000 +SHRA +TSRA
ATIS : +44 02890 935 124



MET'MAP, la Météo Aéronautique d'un coup d'oeil ! - Copyright ORBIFLY Décembre 2007 - Disclaimer

ORBIFLY MET'MAP TEAM :

Programmation & Développement : Alexandra Zaïnal
Conception & Développement : Baudouin d'Aumeries
Co-Programmation & Développement : Marc-Olivier Méhu
Soutien technique & logistique : Manuel Goepfert

Contact : metmap@orbifly.com




SOURCES & CREDITS :

   NOAA